Flight Track Log - Related Links

Times and Time Zones

All times are in EDT time to prevent confusion due to time zone crossing. See the KAP927 flight status page for this flight to view local times or setup timezone preferences in your user account.

Time Position Orientation Groundspeed Altitude Reporting Facility
EDT Latitude Longitude Course Direction KTS MPH feet Rate Location/Type
Wed 07:09:32 PM 43.5261 -74.4875 329° Northwest 151 174 10,000  Level Boston Center
Wed 07:10:32 PM 43.5653 -74.5203 329° Northwest 157 181 10,000  Level Boston Center
Wed 07:11:32 PM 43.6042 -74.5503 331° Northwest 163 188 10,000  Level Boston Center
Wed 07:12:32 PM 43.6411 -74.5803 330° Northwest 163 188 10,000  Level Boston Center
Wed 07:13:32 PM 43.6781 -74.6133 327° Northwest 163 188 10,000  Level Boston Center
Wed 07:14:32 PM 43.7172 -74.6433 331° Northwest 163 188 10,000  Level Boston Center
Wed 07:15:00 PM 43.7288 -74.6292 329° Northwest  Level Estimated
Wed 07:15:32 PM 43.7561 -74.6736 331° Northwest 163 188 10,000  Level Boston Center
Wed 07:16:32 PM 43.7889 -74.7036 327° Northwest 163 188 10,000  Level Boston Center
Wed 07:17:32 PM 43.8258 -74.7336 330° Northwest 163 188 10,000  Level Boston Center
Wed 07:18:32 PM 43.8628 -74.7639 329° Northwest 163 188 10,000  Level Boston Center
Wed 07:19:32 PM 43.8994 -74.8000 325° Northwest 163 188 10,000  Level Boston Center
Wed 07:20:32 PM 43.9364 -74.8272 332° Northwest 163 188 10,000  Level Boston Center
Wed 07:21:32 PM 43.9756 -74.8578 331° Northwest 163 188 10,000 -200 Level Boston Center
Wed 07:22:32 PM 44.0122 -74.8911 327° Northwest 163 188 9,600 -600 Descending Boston Center
Wed 07:23:32 PM 44.0572 -74.9275 330° Northwest 173 199 8,800 -700 Descending Boston Center
Wed 07:24:32 PM 44.1044 -74.9642 331° Northwest 179 206 8,200 -600 Descending Boston Center
Wed 07:25:32 PM 44.1517 -74.9981 333° Northwest 179 206 7,600 -650 Descending Boston Center
Wed 07:26:32 PM 44.1967 -75.0319 332° Northwest 179 206 6,900 -700 Descending Boston Center
Wed 07:27:32 PM 44.2397 -75.0686 329° Northwest 179 206 6,200 -591 Descending Boston Center
Wed 07:28:44 PM 44.2928 -75.1144 328° Northwest 179 206 5,600 -500 Descending Boston Center
Wed 07:29:44 PM 44.3358 -75.1483 331° Northwest 179 206 5,100 -550 Descending Boston Center
Wed 07:30:44 PM 44.3789 -75.1792 333° Northwest 179 206 4,500 -500 Descending Boston Center
Wed 07:31:44 PM 44.4217 -75.2131 331° Northwest 179 206 4,100 -450 Descending Boston Center
Wed 07:32:44 PM 44.4625 -75.2500 327° Northwest 179 206 3,600 -500 Descending Boston Center

Login

Don't have an account? Register now (free) for customized features, flight alerts, and more!